sensor_id;sensor_type;location;lat;lon;timestamp;pressure;altitude;pressure_sealevel;temperature;humidity
9893;BME280;4985;49.092;8.542;2022-10-16T00:01:21;99111.13;;;19.30;50.73
9893;BME280;4985;49.092;8.542;2022-10-16T00:03:48;99103.94;;;19.30;50.73
9893;BME280;4985;49.092;8.542;2022-10-16T00:06:16;99106.59;;;19.30;50.73
9893;BME280;4985;49.092;8.542;2022-10-16T00:08:43;99096.75;;;19.31;50.71
9893;BME280;4985;49.092;8.542;2022-10-16T00:11:13;99099.06;;;19.27;50.71
9893;BME280;4985;49.092;8.542;2022-10-16T00:13:41;99097.78;;;19.30;50.72
9893;BME280;4985;49.092;8.542;2022-10-16T00:16:10;99105.56;;;19.31;50.69
9893;BME280;4985;49.092;8.542;2022-10-16T00:18:37;99102.06;;;19.31;50.69
9893;BME280;4985;49.092;8.542;2022-10-16T00:21:06;99105.78;;;19.30;50.71
9893;BME280;4985;49.092;8.542;2022-10-16T00:23:34;99118.09;;;19.31;50.71
9893;BME280;4985;49.092;8.542;2022-10-16T00:26:02;99117.28;;;19.30;50.70
9893;BME280;4985;49.092;8.542;2022-10-16T00:28:31;99121.78;;;19.30;50.72
9893;BME280;4985;49.092;8.542;2022-10-16T00:30:58;99114.84;;;19.29;50.74
9893;BME280;4985;49.092;8.542;2022-10-16T00:33:25;99111.13;;;19.30;50.72
9893;BME280;4985;49.092;8.542;2022-10-16T00:35:51;99115.41;;;19.31;50.70
9893;BME280;4985;49.092;8.542;2022-10-16T00:38:18;99114.59;;;19.30;50.70
9893;BME280;4985;49.092;8.542;2022-10-16T00:40:44;99117.28;;;19.30;50.70
9893;BME280;4985;49.092;8.542;2022-10-16T00:43:13;99108.22;;;19.31;50.70
9893;BME280;4985;49.092;8.542;2022-10-16T00:45:42;99112.41;;;19.27;50.72
9893;BME280;4985;49.092;8.542;2022-10-16T00:48:12;99112.75;;;19.31;50.69
9893;BME280;4985;49.092;8.542;2022-10-16T00:50:40;99118.09;;;19.31;50.68
9893;BME280;4985;49.092;8.542;2022-10-16T00:53:09;99112.75;;;19.31;50.67
9893;BME280;4985;49.092;8.542;2022-10-16T00:55:37;99114.38;;;19.32;50.65
9893;BME280;4985;49.092;8.542;2022-10-16T00:58:03;99111.72;;;19.32;50.66
9893;BME280;4985;49.092;8.542;2022-10-16T01:00:30;99111.72;;;19.32;50.65
9893;BME280;4985;49.092;8.542;2022-10-16T01:02:59;99114.38;;;19.32;50.63
9893;BME280;4985;49.092;8.542;2022-10-16T01:05:31;99111.72;;;19.32;50.65
9893;BME280;4985;49.092;8.542;2022-10-16T01:08:06;99104.75;;;19.31;50.65
9893;BME280;4985;49.092;8.542;2022-10-16T01:10:37;99119.94;;;19.30;50.68
9893;BME280;4985;49.092;8.542;2022-10-16T01:13:07;99116.47;;;19.30;50.71
9893;BME280;4985;49.092;8.542;2022-10-16T01:15:37;99122.84;;;19.29;50.72
9893;BME280;4985;49.092;8.542;2022-10-16T01:18:11;99137.00;;;19.29;50.73
9893;BME280;4985;49.092;8.542;2022-10-16T01:20:44;99134.31;;;19.29;50.72
9893;BME280;4985;49.092;8.542;2022-10-16T01:23:25;99142.34;;;19.29;50.73
9893;BME280;4985;49.092;8.542;2022-10-16T01:26:14;99137.00;;;19.29;50.74
9893;BME280;4985;49.092;8.542;2022-10-16T01:28:51;99136.19;;;19.29;50.74
9893;BME280;4985;49.092;8.542;2022-10-16T01:31:22;99135.38;;;19.28;50.74
9893;BME280;4985;49.092;8.542;2022-10-16T01:33:56;99133.50;;;19.29;50.71
9893;BME280;4985;49.092;8.542;2022-10-16T01:36:29;99132.47;;;19.30;50.70
9893;BME280;4985;49.092;8.542;2022-10-16T01:39:00;99131.66;;;19.29;50.71
9893;BME280;4985;49.092;8.542;2022-10-16T01:41:30;99132.47;;;19.30;50.69
9893;BME280;4985;49.092;8.542;2022-10-16T01:44:02;99134.31;;;19.29;50.69
9893;BME280;4985;49.092;8.542;2022-10-16T01:46:30;99129.81;;;19.30;50.69
9893;BME280;4985;49.092;8.542;2022-10-16T01:48:59;99126.31;;;19.29;50.70
9893;BME280;4985;49.092;8.542;2022-10-16T01:51:27;99120.19;;;19.29;50.71
9893;BME280;4985;49.092;8.542;2022-10-16T01:53:58;99120.97;;;19.29;50.69
9893;BME280;4985;49.092;8.542;2022-10-16T01:56:27;99133.28;;;19.30;50.69
9893;BME280;4985;49.092;8.542;2022-10-16T01:58:59;99133.50;;;19.29;50.71
9893;BME280;4985;49.092;8.542;2022-10-16T02:01:29;99125.50;;;19.29;50.71
9893;BME280;4985;49.092;8.542;2022-10-16T02:03:59;99130.84;;;19.29;50.72
9893;BME280;4985;49.092;8.542;2022-10-16T02:06:28;99119.13;;;19.30;50.70
9893;BME280;4985;49.092;8.542;2022-10-16T02:08:55;99120.97;;;19.29;50.72
9893;BME280;4985;49.092;8.542;2022-10-16T02:11:22;99121.78;;;19.30;50.69
9893;BME280;4985;49.092;8.542;2022-10-16T02:13:52;99119.34;;;19.28;50.71
9893;BME280;4985;49.092;8.542;2022-10-16T02:16:26;99122.84;;;19.29;50.70
9893;BME280;4985;49.092;8.542;2022-10-16T02:18:58;99119.34;;;19.28;50.71
9893;BME280;4985;49.092;8.542;2022-10-16T02:21:27;99127.13;;;19.30;50.71
9893;BME280;4985;49.092;8.542;2022-10-16T02:23:59;99125.50;;;19.29;50.72
9893;BME280;4985;49.092;8.542;2022-10-16T02:26:30;99122.84;;;19.29;50.72
9893;BME280;4985;49.092;8.542;2022-10-16T02:29:02;99128.19;;;19.29;50.71
9893;BME280;4985;49.092;8.542;2022-10-16T02:31:35;99128.19;;;19.29;50.70
9893;BME280;4985;49.092;8.542;2022-10-16T02:34:04;99133.28;;;19.30;50.68
9893;BME280;4985;49.092;8.542;2022-10-16T02:36:32;99136.19;;;19.29;50.70
9893;BME280;4985;49.092;8.542;2022-10-16T02:39:01;99125.50;;;19.29;50.71
9893;BME280;4985;49.092;8.542;2022-10-16T02:41:30;99132.47;;;19.30;50.69
9893;BME280;4985;49.092;8.542;2022-10-16T02:43:57;99141.53;;;19.29;50.70
9893;BME280;4985;49.092;8.542;2022-10-16T02:46:24;99146.84;;;19.29;50.71
9893;BME280;4985;49.092;8.542;2022-10-16T02:48:51;99146.03;;;19.28;50.70
9893;BME280;4985;49.092;8.542;2022-10-16T02:51:18;99148.50;;;19.30;50.70
9893;BME280;4985;49.092;8.542;2022-10-16T02:53:45;99136.41;;;19.27;50.72
9893;BME280;4985;49.092;8.542;2022-10-16T02:56:11;99141.53;;;19.29;50.72
9893;BME280;4985;49.092;8.542;2022-10-16T02:58:38;99144.19;;;19.29;50.70
9893;BME280;4985;49.092;8.542;2022-10-16T03:01:04;99140.47;;;19.30;50.68
9893;BME280;4985;49.092;8.542;2022-10-16T03:03:31;99136.41;;;19.27;50.70
9893;BME280;4985;49.092;8.542;2022-10-16T03:05:59;99134.56;;;19.28;50.70
9893;BME280;4985;49.092;8.542;2022-10-16T03:08:25;99133.50;;;19.29;50.70
9893;BME280;4985;49.092;8.542;2022-10-16T03:10:52;99141.75;;;19.27;50.70
9893;BME280;4985;49.092;8.542;2022-10-16T03:13:19;99147.91;;;19.28;50.71
9893;BME280;4985;49.092;8.542;2022-10-16T03:15:46;99142.41;;;19.23;50.73
9893;BME280;4985;49.092;8.542;2022-10-16T03:18:13;99158.56;;;19.28;50.74
9893;BME280;4985;49.092;8.542;2022-10-16T03:20:40;99147.50;;;19.24;50.72
9893;BME280;4985;49.092;8.542;2022-10-16T03:23:08;99158.56;;;19.28;50.71
9893;BME280;4985;49.092;8.542;2022-10-16T03:25:34;99153.25;;;19.28;50.71
9893;BME280;4985;49.092;8.542;2022-10-16T03:28:01;99153.25;;;19.28;50.72
9893;BME280;4985;49.092;8.542;2022-10-16T03:30:28;99158.56;;;19.28;50.72
9893;BME280;4985;49.092;8.542;2022-10-16T03:32:55;99155.91;;;19.28;50.69
9893;BME280;4985;49.092;8.542;2022-10-16T03:35:21;99148.72;;;19.28;50.68
9893;BME280;4985;49.092;8.542;2022-10-16T03:37:48;99154.87;;;19.29;50.68
9893;BME280;4985;49.092;8.542;2022-10-16T03:40:17;99151.38;;;19.28;50.69
9893;BME280;4985;49.092;8.542;2022-10-16T03:42:44;99156.72;;;19.28;50.69
9893;BME280;4985;49.092;8.542;2022-10-16T03:45:11;99145.22;;;19.28;50.69
9893;BME280;4985;49.092;8.542;2022-10-16T03:47:37;99145.00;;;19.29;50.69
9893;BME280;4985;49.092;8.542;2022-10-16T03:50:05;99151.38;;;19.28;50.68
9893;BME280;4985;49.092;8.542;2022-10-16T03:52:31;99157.53;;;19.29;50.68
9893;BME280;4985;49.092;8.542;2022-10-16T03:54:58;99158.56;;;19.28;50.69
9893;BME280;4985;49.092;8.542;2022-10-16T03:57:26;99154.06;;;19.28;50.69
9893;BME280;4985;49.092;8.542;2022-10-16T03:59:53;99155.91;;;19.28;50.70
9893;BME280;4985;49.092;8.542;2022-10-16T04:02:19;99158.56;;;19.28;50.71
9893;BME280;4985;49.092;8.542;2022-10-16T04:04:46;99156.94;;;19.27;50.67
9893;BME280;4985;49.092;8.542;2022-10-16T04:07:12;99157.53;;;19.29;50.70
9893;BME280;4985;49.092;8.542;2022-10-16T04:09:39;99146.03;;;19.28;50.70
9893;BME280;4985;49.092;8.542;2022-10-16T04:12:05;99146.84;;;19.29;50.69
9893;BME280;4985;49.092;8.542;2022-10-16T04:14:33;99137.22;;;19.28;50.69
9893;BME280;4985;49.092;8.542;2022-10-16T04:17:00;99144.19;;;19.29;50.68
9893;BME280;4985;49.092;8.542;2022-10-16T04:19:26;99146.84;;;19.29;50.67
9893;BME280;4985;49.092;8.542;2022-10-16T04:21:53;99151.38;;;19.28;50.66
9893;BME280;4985;49.092;8.542;2022-10-16T04:24:20;99153.25;;;19.28;50.68
9893;BME280;4985;49.092;8.542;2022-10-16T04:26:46;99155.09;;;19.27;50.69
9893;BME280;4985;49.092;8.542;2022-10-16T04:29:13;99155.09;;;19.27;50.68
9893;BME280;4985;49.092;8.542;2022-10-16T04:31:40;99166.59;;;19.28;50.69
9893;BME280;4985;49.092;8.542;2022-10-16T04:34:07;99174.59;;;19.28;50.68
9893;BME280;4985;49.092;8.542;2022-10-16T04:36:34;99185.25;;;19.28;50.70
9893;BME280;4985;49.092;8.542;2022-10-16T04:39:00;99182.59;;;19.28;50.70
9893;BME280;4985;49.092;8.542;2022-10-16T04:41:27;99193.28;;;19.28;50.70
9893;BME280;4985;49.092;8.542;2022-10-16T04:43:53;99192.44;;;19.27;50.69
9893;BME280;4985;49.092;8.542;2022-10-16T04:46:20;99199.66;;;19.27;50.69
9893;BME280;4985;49.092;8.542;2022-10-16T04:48:48;99197.78;;;19.27;50.70
9893;BME280;4985;49.092;8.542;2022-10-16T04:51:14;99204.16;;;19.26;50.69
9893;BME280;4985;49.092;8.542;2022-10-16T04:53:41;99207.66;;;19.27;50.71
9893;BME280;4985;49.092;8.542;2022-10-16T04:56:07;99203.13;;;19.27;50.70
9893;BME280;4985;49.092;8.542;2022-10-16T04:58:34;99202.09;;;19.28;50.67
9893;BME280;4985;49.092;8.542;2022-10-16T05:01:00;99203.56;;;19.24;50.67
9893;BME280;4985;49.092;8.542;2022-10-16T05:03:27;99193.28;;;19.28;50.68
9893;BME280;4985;49.092;8.542;2022-10-16T05:05:55;99197.78;;;19.27;50.66
9893;BME280;4985;49.092;8.542;2022-10-16T05:08:21;99194.09;;;19.28;50.65
9893;BME280;4985;49.092;8.542;2022-10-16T05:10:48;99200.22;;;19.29;50.66
9893;BME280;4985;49.092;8.542;2022-10-16T05:13:15;99187.34;;;19.26;50.67
9893;BME280;4985;49.092;8.542;2022-10-16T05:15:41;99189.56;;;19.29;50.66
9893;BME280;4985;49.092;8.542;2022-10-16T05:18:08;99195.94;;;19.28;50.68
9893;BME280;4985;49.092;8.542;2022-10-16T05:20:35;99198.59;;;19.28;50.66
9893;BME280;4985;49.092;8.542;2022-10-16T05:23:03;99201.28;;;19.28;50.69
9893;BME280;4985;49.092;8.542;2022-10-16T05:25:29;99196.97;;;19.27;50.68
9893;BME280;4985;49.092;8.542;2022-10-16T05:27:56;99197.78;;;19.27;50.69
9893;BME280;4985;49.092;8.542;2022-10-16T05:30:22;99194.31;;;19.27;50.67
9893;BME280;4985;49.092;8.542;2022-10-16T05:32:50;99197.78;;;19.27;50.69
9893;BME280;4985;49.092;8.542;2022-10-16T05:35:17;99199.66;;;19.27;50.67
9893;BME280;4985;49.092;8.542;2022-10-16T05:37:44;99210.09;;;19.28;50.67
9893;BME280;4985;49.092;8.542;2022-10-16T05:40:12;99209.28;;;19.28;50.67
9893;BME280;4985;49.092;8.542;2022-10-16T05:42:39;99208.47;;;19.27;50.67
9893;BME280;4985;49.092;8.542;2022-10-16T05:45:07;99213.00;;;19.27;50.68
9893;BME280;4985;49.092;8.542;2022-10-16T05:47:35;99213.00;;;19.27;50.67
9893;BME280;4985;49.092;8.542;2022-10-16T05:50:02;99213.00;;;19.27;50.66
9893;BME280;4985;49.092;8.542;2022-10-16T05:52:30;99215.66;;;19.27;50.67
9893;BME280;4985;49.092;8.542;2022-10-16T05:54:56;99217.28;;;19.28;50.66
9893;BME280;4985;49.092;8.542;2022-10-16T05:57:24;99218.91;;;19.29;50.64
9893;BME280;4985;49.092;8.542;2022-10-16T05:59:51;99229.59;;;19.29;50.62
9893;BME280;4985;49.092;8.542;2022-10-16T06:02:17;99223.66;;;19.27;50.62
9893;BME280;4985;49.092;8.542;2022-10-16T06:04:44;99223.66;;;19.27;50.63
9893;BME280;4985;49.092;8.542;2022-10-16T06:07:10;99234.34;;;19.27;50.65
9893;BME280;4985;49.092;8.542;2022-10-16T06:09:37;99216.69;;;19.26;50.66
9893;BME280;4985;49.092;8.542;2022-10-16T06:12:04;99213.81;;;19.27;50.66
9893;BME280;4985;49.092;8.542;2022-10-16T06:14:32;99213.00;;;19.27;50.65
9893;BME280;4985;49.092;8.542;2022-10-16T06:16:58;99225.28;;;19.28;50.66
9893;BME280;4985;49.092;8.542;2022-10-16T06:19:25;99222.03;;;19.26;50.66
9893;BME280;4985;49.092;8.542;2022-10-16T06:21:51;99219.38;;;19.26;50.68
9893;BME280;4985;49.092;8.542;2022-10-16T06:24:18;99222.03;;;19.26;50.68
9893;BME280;4985;49.092;8.542;2022-10-16T06:26:44;99224.72;;;19.26;50.69
9893;BME280;4985;49.092;8.542;2022-10-16T06:29:11;99231.06;;;19.25;50.70
9893;BME280;4985;49.092;8.542;2022-10-16T06:31:39;99243.38;;;19.26;50.69
9893;BME280;4985;49.092;8.542;2022-10-16T06:34:05;99240.09;;;19.24;50.73
9893;BME280;4985;49.092;8.542;2022-10-16T06:36:34;99241.72;;;19.25;50.73
9893;BME280;4985;49.092;8.542;2022-10-16T06:39:01;99245.44;;;19.24;50.73
9893;BME280;4985;49.092;8.542;2022-10-16T06:41:28;99241.94;;;19.23;50.73
9893;BME280;4985;49.092;8.542;2022-10-16T06:43:54;99254.25;;;19.24;50.73
9893;BME280;4985;49.092;8.542;2022-10-16T06:46:23;99261.44;;;19.24;50.71
9893;BME280;4985;49.092;8.542;2022-10-16T06:48:52;99267.41;;;19.26;50.70
9893;BME280;4985;49.092;8.542;2022-10-16T06:51:20;99267.59;;;19.24;50.73
9893;BME280;4985;49.092;8.542;2022-10-16T06:53:48;99279.09;;;19.25;50.73
9893;BME280;4985;49.092;8.542;2022-10-16T06:56:17;99277.47;;;19.24;50.73
9893;BME280;4985;49.092;8.542;2022-10-16T06:58:44;99272.94;;;19.24;50.73
9893;BME280;4985;49.092;8.542;2022-10-16T07:01:12;99280.94;;;19.24;50.71
9893;BME280;4985;49.092;8.542;2022-10-16T07:03:40;99283.84;;;19.23;50.71
9893;BME280;4985;49.092;8.542;2022-10-16T07:06:10;99277.22;;;19.25;50.71
9893;BME280;4985;49.092;8.542;2022-10-16T07:08:39;99282.56;;;19.25;50.69
9893;BME280;4985;49.092;8.542;2022-10-16T07:11:07;99284.44;;;19.25;50.69
9893;BME280;4985;49.092;8.542;2022-10-16T07:13:35;99280.75;;;19.26;50.68
9893;BME280;4985;49.092;8.542;2022-10-16T07:16:04;99295.91;;;19.25;50.69
9893;BME280;4985;49.092;8.542;2022-10-16T07:18:31;99287.91;;;19.25;50.68
9893;BME280;4985;49.092;8.542;2022-10-16T07:21:03;99286.09;;;19.26;50.69
9893;BME280;4985;49.092;8.542;2022-10-16T07:23:31;99291.41;;;19.26;50.68
9893;BME280;4985;49.092;8.542;2022-10-16T07:25:57;99288.75;;;19.26;50.68
9893;BME280;4985;49.092;8.542;2022-10-16T07:28:24;99286.09;;;19.26;50.69
9893;BME280;4985;49.092;8.542;2022-10-16T07:30:50;99296.75;;;19.26;50.70
9893;BME280;4985;49.092;8.542;2022-10-16T07:33:17;99295.91;;;19.25;50.73
9893;BME280;4985;49.092;8.542;2022-10-16T07:35:48;99301.25;;;19.25;50.78
9893;BME280;4985;49.092;8.542;2022-10-16T07:38:15;99307.44;;;19.26;50.75
9893;BME280;4985;49.092;8.542;2022-10-16T07:40:43;99314.41;;;19.27;50.76
9893;BME280;4985;49.092;8.542;2022-10-16T07:43:09;99312.78;;;19.26;50.77
9893;BME280;4985;49.092;8.542;2022-10-16T07:45:36;99318.13;;;19.26;50.77
9893;BME280;4985;49.092;8.542;2022-10-16T07:48:03;99308.25;;;19.26;50.75
9893;BME280;4985;49.092;8.542;2022-10-16T07:50:30;99318.69;;;19.28;50.75
9893;BME280;4985;49.092;8.542;2022-10-16T07:52:56;99319.75;;;19.27;50.77
9893;BME280;4985;49.092;8.542;2022-10-16T07:55:23;99331.22;;;19.27;50.78
9893;BME280;4985;49.092;8.542;2022-10-16T07:57:51;99321.59;;;19.26;50.81
9893;BME280;4985;49.092;8.542;2022-10-16T08:00:17;99328.78;;;19.26;50.83
9893;BME280;4985;49.092;8.542;2022-10-16T08:02:44;99333.28;;;19.25;50.83
9893;BME280;4985;49.092;8.542;2022-10-16T08:05:10;99332.47;;;19.25;50.84
9893;BME280;4985;49.092;8.542;2022-10-16T08:07:37;99343.75;;;19.27;50.84
9893;BME280;4985;49.092;8.542;2022-10-16T08:10:04;99341.09;;;19.27;50.83
9893;BME280;4985;49.092;8.542;2022-10-16T08:12:31;99348.06;;;19.28;50.81
9893;BME280;4985;49.092;8.542;2022-10-16T08:14:59;99340.06;;;19.28;50.80
9893;BME280;4985;49.092;8.542;2022-10-16T08:17:25;99350.94;;;19.26;50.81
9893;BME280;4985;49.092;8.542;2022-10-16T08:19:52;99349.09;;;19.27;50.83
9893;BME280;4985;49.092;8.542;2022-10-16T08:22:18;99353.63;;;19.26;50.84
9893;BME280;4985;49.092;8.542;2022-10-16T08:24:45;99343.53;;;19.28;50.83
9893;BME280;4985;49.092;8.542;2022-10-16T08:27:11;99345.63;;;19.26;50.85
9893;BME280;4985;49.092;8.542;2022-10-16T08:29:38;99345.63;;;19.26;50.87
9893;BME280;4985;49.092;8.542;2022-10-16T08:32:06;99342.72;;;19.28;50.87
9893;BME280;4985;49.092;8.542;2022-10-16T08:34:32;99343.53;;;19.28;50.87
9893;BME280;4985;49.092;8.542;2022-10-16T08:36:59;99337.37;;;19.28;50.88
9893;BME280;4985;49.092;8.542;2022-10-16T08:39:26;99341.91;;;19.27;50.89
9893;BME280;4985;49.092;8.542;2022-10-16T08:42:05;99344.56;;;19.27;50.91
9893;BME280;4985;49.092;8.542;2022-10-16T08:47:43;99353.41;;;19.28;50.91
9893;BME280;4985;49.092;8.542;2022-10-16T08:50:13;99361.41;;;19.28;50.91
9893;BME280;4985;49.092;8.542;2022-10-16T08:52:43;99369.19;;;19.29;50.90
9893;BME280;4985;49.092;8.542;2022-10-16T08:55:19;99361.19;;;19.29;50.90
9893;BME280;4985;49.092;8.542;2022-10-16T08:57:53;99370.00;;;19.30;50.90
9893;BME280;4985;49.092;8.542;2022-10-16T09:00:20;99369.78;;;19.31;50.89
9893;BME280;4985;49.092;8.542;2022-10-16T09:02:54;99371.41;;;19.32;50.88
9893;BME280;4985;49.092;8.542;2022-10-16T09:05:38;99374.31;;;19.31;50.89
9893;BME280;4985;49.092;8.542;2022-10-16T09:08:15;99374.09;;;19.32;50.90
9893;BME280;4985;49.092;8.542;2022-10-16T09:10:50;99381.28;;;19.32;50.92
9893;BME280;4985;49.092;8.542;2022-10-16T09:13:24;99383.94;;;19.32;50.92
9893;BME280;4985;49.092;8.542;2022-10-16T09:15:58;99391.97;;;19.32;50.92
9893;BME280;4985;49.092;8.542;2022-10-16T09:18:34;99395.44;;;19.32;50.93
9893;BME280;4985;49.092;8.542;2022-10-16T09:21:09;99401.59;;;19.33;50.93
9893;BME280;4985;49.092;8.542;2022-10-16T09:23:37;99403.22;;;19.34;50.93
9893;BME280;4985;49.092;8.542;2022-10-16T09:26:05;99409.38;;;19.34;50.93
9893;BME280;4985;49.092;8.542;2022-10-16T09:28:35;99405.91;;;19.34;50.93
9893;BME280;4985;49.092;8.542;2022-10-16T09:31:02;99412.06;;;19.34;50.94
9893;BME280;4985;49.092;8.542;2022-10-16T09:33:33;99412.88;;;19.35;50.95
9893;BME280;4985;49.092;8.542;2022-10-16T09:36:03;99406.72;;;19.34;50.94
9893;BME280;4985;49.092;8.542;2022-10-16T09:38:33;99420.66;;;19.36;50.94
9893;BME280;4985;49.092;8.542;2022-10-16T09:41:02;99421.50;;;19.37;50.95
9893;BME280;4985;49.092;8.542;2022-10-16T09:43:34;99431.34;;;19.36;50.97
9893;BME280;4985;49.092;8.542;2022-10-16T09:46:02;99427.03;;;19.35;50.98
9893;BME280;4985;49.092;8.542;2022-10-16T09:48:36;99426.22;;;19.35;51.02
9893;BME280;4985;49.092;8.542;2022-10-16T09:51:04;99435.25;;;19.34;51.02
9893;BME280;4985;49.092;8.542;2022-10-16T09:53:40;99436.66;;;19.36;51.00
9893;BME280;4985;49.092;8.542;2022-10-16T09:56:09;99442.84;;;19.37;50.99
9893;BME280;4985;49.092;8.542;2022-10-16T09:58:42;99445.53;;;19.37;50.98
9893;BME280;4985;49.092;8.542;2022-10-16T10:01:12;99448.19;;;19.37;51.01
9893;BME280;4985;49.092;8.542;2022-10-16T10:03:43;99449.00;;;19.37;51.00
9893;BME280;4985;49.092;8.542;2022-10-16T10:06:20;99446.34;;;19.37;50.99
9893;BME280;4985;49.092;8.542;2022-10-16T10:08:56;99455.16;;;19.38;51.01
9893;BME280;4985;49.092;8.542;2022-10-16T10:11:44;99452.50;;;19.38;51.03
9893;BME280;4985;49.092;8.542;2022-10-16T10:14:24;99459.69;;;19.37;51.02
9893;BME280;4985;49.092;8.542;2022-10-16T10:16:52;99464.81;;;19.39;51.03
9893;BME280;4985;49.092;8.542;2022-10-16T10:19:22;99466.44;;;19.40;51.04
9893;BME280;4985;49.092;8.542;2022-10-16T10:21:49;99477.13;;;19.40;51.04
9893;BME280;4985;49.092;8.542;2022-10-16T10:24:18;99472.81;;;19.39;51.04
9893;BME280;4985;49.092;8.542;2022-10-16T10:26:50;99469.09;;;19.40;51.04
9893;BME280;4985;49.092;8.542;2022-10-16T10:29:37;99475.25;;;19.40;51.04
9893;BME280;4985;49.092;8.542;2022-10-16T10:32:18;99475.03;;;19.42;51.04
9893;BME280;4985;49.092;8.542;2022-10-16T10:34:58;99471.56;;;19.41;51.04
9893;BME280;4985;49.092;8.542;2022-10-16T10:37:39;99468.66;;;19.43;51.01
9893;BME280;4985;49.092;8.542;2022-10-16T10:40:21;99467.03;;;19.42;51.00
9893;BME280;4985;49.092;8.542;2022-10-16T10:42:56;99458.00;;;19.43;50.98
9893;BME280;4985;49.092;8.542;2022-10-16T10:45:27;99457.19;;;19.42;50.99
9893;BME280;4985;49.092;8.542;2022-10-16T10:48:16;99463.34;;;19.43;50.98
9893;BME280;4985;49.092;8.542;2022-10-16T10:50:49;99463.34;;;19.43;51.00
9893;BME280;4985;49.092;8.542;2022-10-16T10:53:36;99466.00;;;19.43;51.01
9893;BME280;4985;49.092;8.542;2022-10-16T10:56:14;99472.38;;;19.42;51.01
9893;BME280;4985;49.092;8.542;2022-10-16T10:59:00;99469.47;;;19.43;51.02
9893;BME280;4985;49.092;8.542;2022-10-16T11:01:39;99469.47;;;19.43;51.02
9893;BME280;4985;49.092;8.542;2022-10-16T11:04:29;99451.03;;;19.42;50.99
9893;BME280;4985;49.092;8.542;2022-10-16T11:07:04;99451.63;;;19.44;50.98
9893;BME280;4985;49.092;8.542;2022-10-16T11:09:34;99450.56;;;19.45;51.00
9893;BME280;4985;49.092;8.542;2022-10-16T11:12:07;99456.97;;;19.44;51.00
9893;BME280;4985;49.092;8.542;2022-10-16T11:14:40;99459.63;;;19.44;50.99
9893;BME280;4985;49.092;8.542;2022-10-16T11:17:12;99462.88;;;19.46;51.01
9893;BME280;4985;49.092;8.542;2022-10-16T11:19:44;99457.41;;;19.41;51.01
9893;BME280;4985;49.092;8.542;2022-10-16T11:22:17;99462.06;;;19.45;51.00
9893;BME280;4985;49.092;8.542;2022-10-16T11:24:48;99460.22;;;19.46;51.01
9893;BME280;4985;49.092;8.542;2022-10-16T11:27:19;99462.88;;;19.46;51.03
9893;BME280;4985;49.092;8.542;2022-10-16T11:29:52;99459.63;;;19.44;51.03
9893;BME280;4985;49.092;8.542;2022-10-16T11:32:27;99462.06;;;19.45;51.05
9893;BME280;4985;49.092;8.542;2022-10-16T11:35:00;99463.72;;;19.46;51.04
9893;BME280;4985;49.092;8.542;2022-10-16T11:37:32;99459.19;;;19.47;51.04
9893;BME280;4985;49.092;8.542;2022-10-16T11:40:11;99458.19;;;19.48;51.04
9893;BME280;4985;49.092;8.542;2022-10-16T11:42:46;99463.53;;;19.48;51.06
9893;BME280;4985;49.092;8.542;2022-10-16T11:45:24;99459.00;;;19.48;51.06
9893;BME280;4985;49.092;8.542;2022-10-16T11:48:00;99466.19;;;19.48;51.08
9893;BME280;4985;49.092;8.542;2022-10-16T11:50:32;99457.97;;;19.49;51.10
9893;BME280;4985;49.092;8.542;2022-10-16T11:53:05;99456.09;;;19.50;51.10
9893;BME280;4985;49.092;8.542;2022-10-16T11:55:37;99446.47;;;19.49;51.10
9893;BME280;4985;49.092;8.542;2022-10-16T11:58:07;99452.41;;;19.51;51.11
9893;BME280;4985;49.092;8.542;2022-10-16T12:00:39;99454.03;;;19.52;51.10
9893;BME280;4985;49.092;8.542;2022-10-16T12:03:15;99451.34;;;19.52;51.09
9893;BME280;4985;49.092;8.542;2022-10-16T12:05:55;99455.66;;;19.53;51.07
9893;BME280;4985;49.092;8.542;2022-10-16T12:08:26;99449.28;;;19.54;51.07
9893;BME280;4985;49.092;8.542;2022-10-16T12:11:06;99450.94;;;19.55;51.07
9893;BME280;4985;49.092;8.542;2022-10-16T12:13:34;99456.28;;;19.55;51.05
9893;BME280;4985;49.092;8.542;2022-10-16T12:16:21;99441.91;;;19.56;51.06
9893;BME280;4985;49.092;8.542;2022-10-16T12:18:48;99449.91;;;19.56;51.07
9893;BME280;4985;49.092;8.542;2022-10-16T12:21:16;99442.72;;;19.57;51.07
9893;BME280;4985;49.092;8.542;2022-10-16T12:23:50;99453.19;;;19.58;51.09
9893;BME280;4985;49.092;8.542;2022-10-16T12:26:25;99451.53;;;19.57;51.09
9893;BME280;4985;49.092;8.542;2022-10-16T12:28:51;99449.69;;;19.58;51.10
9893;BME280;4985;49.092;8.542;2022-10-16T12:31:18;99445.16;;;19.58;51.12
9893;BME280;4985;49.092;8.542;2022-10-16T12:33:56;99445.16;;;19.58;51.11
9893;BME280;4985;49.092;8.542;2022-10-16T12:36:28;99440.03;;;19.57;51.09
9893;BME280;4985;49.092;8.542;2022-10-16T12:38:58;99448.47;;;19.60;51.09
9893;BME280;4985;49.092;8.542;2022-10-16T12:41:26;99442.91;;;19.62;51.08
9893;BME280;4985;49.092;8.542;2022-10-16T12:43:53;99450.91;;;19.62;51.07
9893;BME280;4985;49.092;8.542;2022-10-16T12:46:23;99442.91;;;19.62;51.08
9893;BME280;4985;49.092;8.542;2022-10-16T12:48:52;99441.03;;;19.62;51.08
9893;BME280;4985;49.092;8.542;2022-10-16T12:51:24;99449.66;;;19.64;51.08
9893;BME280;4985;49.092;8.542;2022-10-16T12:54:03;99444.31;;;19.64;51.04
9893;BME280;4985;49.092;8.542;2022-10-16T12:56:41;99455.00;;;19.64;51.05
9893;BME280;4985;49.092;8.542;2022-10-16T12:59:19;99449.06;;;19.62;51.04
9893;BME280;4985;49.092;8.542;2022-10-16T13:01:58;99444.31;;;19.64;51.05
9893;BME280;4985;49.092;8.542;2022-10-16T13:05:03;99461.97;;;19.65;51.06
9893;BME280;4985;49.092;8.542;2022-10-16T13:07:42;99452.91;;;19.66;51.06
9893;BME280;4985;49.092;8.542;2022-10-16T13:10:21;99453.72;;;19.67;51.07
9893;BME280;4985;49.092;8.542;2022-10-16T13:13:05;99462.56;;;19.67;51.09
9893;BME280;4985;49.092;8.542;2022-10-16T13:15:48;99459.87;;;19.67;51.08
9893;BME280;4985;49.092;8.542;2022-10-16T13:18:22;99459.87;;;19.67;51.07
9893;BME280;4985;49.092;8.542;2022-10-16T13:21:06;99461.53;;;19.68;51.08
9893;BME280;4985;49.092;8.542;2022-10-16T13:23:45;99468.50;;;19.69;51.07
9893;BME280;4985;49.092;8.542;2022-10-16T13:26:23;99468.31;;;19.71;51.06
9893;BME280;4985;49.092;8.542;2022-10-16T13:28:53;99471.97;;;19.70;51.05
9893;BME280;4985;49.092;8.542;2022-10-16T13:31:21;99462.97;;;19.71;51.03
9893;BME280;4985;49.092;8.542;2022-10-16T13:33:50;99470.75;;;19.72;51.01
9893;BME280;4985;49.092;8.542;2022-10-16T13:36:21;99461.94;;;19.72;51.03
9893;BME280;4985;49.092;8.542;2022-10-16T13:38:48;99462.75;;;19.72;51.00
9893;BME280;4985;49.092;8.542;2022-10-16T13:41:26;99459.03;;;19.73;51.01